Flight Track Log - Related Links

Times and Time Zones

All times are in EST time to prevent confusion due to time zone crossing. See the N406TM flight status page for this flight to view local times or setup timezone preferences in your user account.

Time Position Orientation Groundspeed Altitude Reporting Facility
EST Latitude Longitude Course Direction KTS MPH feet Rate Location/Type
Mon 10:38:11 AM 36.1333 -86.6833 287° West 163 188 1,400  Level Nashville TRACON
Mon 10:39:11 AM 36.1500 -86.7500 287° West 181 208 4,600 2,936 Climbing Nashville TRACON
Mon 10:39:45 AM 36.1425 -86.7739 249° West 175 201 6,000 3,125 Climbing Memphis Center
Mon 10:40:47 AM 36.0783 -86.8286 215° Southwest 236 272 9,600 3,387 Climbing Memphis Center
Mon 10:41:49 AM 36.0136 -86.8781 212° Southwest 262 302 13,000 3,145 Climbing Memphis Center
Mon 10:42:51 AM 35.9447 -86.9292 211° Southwest 280 322 16,100 2,516 Climbing Memphis Center
Mon 10:43:53 AM 35.8761 -86.9811 212° Southwest 283 326 18,200 2,177 Climbing Memphis Center
Mon 10:44:55 AM 35.8047 -87.0347 211° Southwest 293 337 20,600 2,177 Climbing Memphis Center
Mon 10:45:57 AM 35.7317 -87.0919 212° Southwest 303 349 22,700 1,984 Climbing Memphis Center
Mon 10:46:59 AM 35.6567 -87.1539 214° Southwest 316 364 24,700 2,016 Climbing Memphis Center
Mon 10:48:02 AM 35.5697 -87.2022 204° Southwest 338 389 26,900 2,160 Climbing Memphis Center
Mon 10:49:04 AM 35.4586 -87.2344 193° South 348 400 29,200 1,790 Climbing Memphis Center
Mon 10:50:06 AM 35.3742 -87.2644 196° South 348 400 30,600 1,452 Climbing Memphis Center
Mon 10:51:08 AM 35.2808 -87.2964 196° South 348 400 32,200 1,742 Climbing Memphis Center
Mon 10:52:10 AM 35.1697 -87.3339 195° South 348 400 34,200 1,403 Climbing Memphis Center
Mon 10:53:12 AM 35.0806 -87.3647 196° South 337 388 35,100 774 Climbing Memphis Center
Mon 10:54:14 AM 34.9886 -87.3956 195° South 339 390 35,800 774 Climbing Memphis Center
Mon 10:55:16 AM 34.8956 -87.4272 196° South 343 395 36,700 823 Climbing Memphis Center
Mon 10:56:18 AM 34.8025 -87.4592 196° South 344 396 37,500 677 Climbing Memphis Center
Mon 10:57:20 AM 34.7125 -87.4903 196° South 343 395 38,100 677 Climbing Memphis Center
Mon 10:58:22 AM 34.6139 -87.5453 205° Southwest 330 380 38,900 677 Climbing Memphis Center
Mon 10:59:24 AM 34.5353 -87.5908 206° Southwest 321 369 39,500 532 Climbing Memphis Center
Mon 11:00:26 AM 34.4572 -87.6378 206° Southwest 316 364 40,000 242 Climbing Memphis Center
Mon 11:01:28 AM 34.3831 -87.6792 205° Southwest 315 362 40,000  Level Memphis Center
Mon 11:02:31 AM 34.2878 -87.7339 205° Southwest 315 362 40,000  Level Memphis Center
Mon 11:03:33 AM 34.2058 -87.7806 205° Southwest 323 372 40,000  Level Memphis Center
Mon 11:04:35 AM 34.1217 -87.8283 205° Southwest 329 379 40,000  Level Memphis Center
Mon 11:05:37 AM 34.0361 -87.8778 206° Southwest 336 387 40,000  Level Memphis Center
Mon 11:06:39 AM 33.9478 -87.9283 205° Southwest 344 396 40,000  Level Memphis Center
Mon 11:07:41 AM 33.8431 -87.9878 205° Southwest 346 398 40,000  Level Memphis Center
Mon 11:08:43 AM 33.7547 -88.0381 205° Southwest 347 399 40,000  Level Memphis Center
Mon 11:09:45 AM 33.6656 -88.0878 205° Southwest 347 399 40,000  Level Memphis Center
Mon 11:10:47 AM 33.5769 -88.1372 205° Southwest 348 400 40,000  Level Memphis Center
Mon 11:11:49 AM 33.4775 -88.1650 193° South 356 410 40,000  Level Memphis Center
Mon 11:12:51 AM 33.3572 -88.1994 193° South 366 421 40,000  Level Memphis Center
Mon 11:13:53 AM 33.2589 -88.2261 193° South 366 421 40,000  Level Memphis Center
Mon 11:14:55 AM 33.1664 -88.2672 200° South 362 417 40,000  Level Memphis Center
Mon 11:15:57 AM 33.0758 -88.3117 202° Southwest 356 410 40,000  Level Memphis Center
Mon 11:17:00 AM 32.9839 -88.3553 202° Southwest 356 410 40,000  Level Memphis Center
Mon 11:18:02 AM 32.8917 -88.3997 202° Southwest 356 410 40,000  Level Memphis Center
Mon 11:19:04 AM 32.7811 -88.4525 202° Southwest 356 410 40,000  Level Memphis Center
Mon 11:20:06 AM 32.6900 -88.4961 202° Southwest 356 410 40,000  Level Memphis Center
Mon 11:21:08 AM 32.5975 -88.5397 202° Southwest 356 410 40,000  Level Memphis Center
Mon 11:22:10 AM 32.5039 -88.5850 202° Southwest 357 411 40,000  Level Memphis Center
Mon 11:23:12 AM 32.4128 -88.6278 202° Southwest 357 411 40,000  Level Memphis Center
Mon 11:24:14 AM 32.3014 -88.6803 202° Southwest 357 411 40,000  Level Memphis Center
Mon 11:25:16 AM 32.2094 -88.7225 201° Southwest 357 411 40,000  Level Memphis Center
Mon 11:26:18 AM 32.1172 -88.7658 202° Southwest 357 411 40,000  Level Memphis Center
Mon 11:27:20 AM 32.0233 -88.8097 202° Southwest 358 412 40,000  Level Memphis Center
Mon 11:28:22 AM 31.9194 -88.8597 202° Southwest 359 413 40,000  Level Memphis Center
Mon 11:29:24 AM 31.8261 -88.9028 201° Southwest 359 413 40,000  Level Memphis Center
Mon 11:30:27 AM 31.7331 -88.9478 202° Southwest 359 413 40,000  Level Memphis Center
Mon 11:31:27 AM 31.6392 -88.9906 201° Southwest 362 417 40,000  Level Houston Center
Mon 11:32:29 AM 31.5461 -89.0347 202° Southwest 363 418 40,000  Level Houston Center
Mon 11:33:31 AM 31.4333 -89.0844 201° Southwest 361 415 40,000  Level Houston Center
Mon 11:34:33 AM 31.3281 -89.0947 185° South 385 443 40,000  Level Houston Center
Mon 11:35:35 AM 31.2228 -89.0972 181° South 386 444 40,000  Level Houston Center
Mon 11:36:37 AM 31.1142 -89.1011 182° South 389 448 40,000  Level Houston Center
Mon 11:37:39 AM 31.0069 -89.1047 182° South 387 445 40,000  Level Houston Center
Mon 11:38:42 AM 30.8753 -89.1097 182° South 391 450 40,000  Level Houston Center
Mon 11:39:44 AM 30.7675 -89.1136 182° South 388 447 40,000  Level Houston Center
Mon 11:40:46 AM 30.6589 -89.1175 182° South 389 448 40,000  Level Houston Center
Mon 11:41:48 AM 30.5486 -89.1208 181° South 392 451 40,000  Level Houston Center
Mon 11:42:50 AM 30.4397 -89.1250 182° South 392 451 40,000  Level Houston Center
Mon 11:43:52 AM 30.3300 -89.1286 182° South 390 449 40,000  Level Houston Center
Mon 11:44:54 AM 30.2206 -89.1325 182° South 391 450 40,000  Level Houston Center
Mon 11:45:57 AM 30.0881 -89.1364 181° South 393 452 40,000  Level Houston Center
Mon 11:46:59 AM 29.9775 -89.1403 182° South 395 455 40,000  Level Houston Center
Mon 11:48:01 AM 29.8669 -89.1444 182° South 395 455 40,000  Level Houston Center
Mon 11:49:03 AM 29.7561 -89.1475 181° South 396 456 40,000 97 Level Houston Center
Mon 11:50:05 AM 29.6453 -89.1514 182° South 397 457 40,200 339 Climbing Houston Center
Mon 11:51:07 AM 29.5381 -89.1569 183° South 388 447 40,700 387 Climbing Houston Center
Mon 11:52:09 AM 29.4133 -89.1603 181° South 376 433 41,000 144 Climbing Houston Center
Mon 11:53:12 AM 29.3086 -89.1644 182° South 376 433 41,000  Level Houston Center
Mon 11:54:14 AM 29.2028 -89.1681 182° South 378 435 41,000  Level Houston Center
Mon 11:55:16 AM 29.0964 -89.1708 181° South 381 438 41,000  Level Houston Center
Mon 11:56:18 AM 28.9894 -89.1747 182° South 383 441 41,000  Level Houston Center
Mon 11:57:20 AM 28.8828 -89.1767 181° South 384 442 41,000  Level Houston Center
Mon 11:58:22 AM 28.7528 -89.1814 182° South 388 447 41,000  Level Houston Center
Mon 11:59:24 AM 28.6433 -89.1844 181° South 391 450 41,000  Level Houston Center
Mon 12:00:27 PM 28.5356 -89.1886 182° South 388 447 41,000  Level Houston Center
Mon 12:01:29 PM 28.4256 -89.1922 182° South 395 455 41,000  Level Houston Center
Mon 12:02:31 PM 28.3153 -89.1947 181° South 396 456 41,000  Level Houston Center
Mon 12:03:33 PM 28.2050 -89.1997 182° South 397 457 41,000  Level Houston Center
Mon 12:04:35 PM 28.0728 -89.2033 181° South 397 457 41,000  Level Houston Center
Mon 12:05:37 PM 27.9614 -89.2072 182° South 399 459 41,000  Level Houston Center
Mon 12:06:39 PM 27.8497 -89.2103 181° South 401 461 41,000  Level Houston Center
Mon 12:07:42 PM 27.7383 -89.2144 182° South 399 459 41,000  Level Houston Center
Mon 12:08:44 PM 27.6261 -89.2169 181° South 401 461 41,000  Level Houston Center
Mon 12:09:46 PM 27.4931 -89.2219 182° South 399 459 41,000  Level Houston Center
Mon 12:10:48 PM 27.3808 -89.2267 182° South 401 461 41,000  Level Houston Center
Mon 12:11:50 PM 27.2683 -89.2281 181° South 403 464 41,000  Level Houston Center
Mon 12:12:52 PM 27.1572 -89.2314 182° South 401 461 41,000  Level Houston Center
Mon 12:14:00 PM 27.0451 -89.2113 160° South  Level FlightAware Approximate
Mon 12:21:00 PM 26.3739 -88.9405 160° South  Level FlightAware Approximate
Mon 12:22:00 PM 26.2784 -88.9010 160° South  Level FlightAware Approximate
Mon 12:23:00 PM 26.1826 -88.8621 160° South  Level FlightAware Approximate
Mon 12:24:00 PM 26.0869 -88.8232 160° South  Level FlightAware Approximate
Mon 12:25:00 PM 25.9911 -88.7843 160° South  Level FlightAware Approximate
Mon 12:26:00 PM 25.8953 -88.7456 160° South  Level FlightAware Approximate
Mon 12:27:00 PM 25.7995 -88.7068 160° South  Level FlightAware Approximate
Mon 12:28:00 PM 25.7038 -88.6682 160° South  Level FlightAware Approximate
Mon 12:29:00 PM 25.6079 -88.6298 160° South  Level FlightAware Approximate
Mon 12:30:00 PM 25.5120 -88.5914 160° South  Level FlightAware Approximate
Mon 12:31:00 PM 25.4161 -88.5531 160° South  Level FlightAware Approximate
Mon 12:32:00 PM 25.3201 -88.5153 161° South  Level FlightAware Approximate
Mon 12:33:00 PM 25.2239 -88.4781 161° South  Level FlightAware Approximate
Mon 12:34:00 PM 25.1277 -88.4409 161° South  Level FlightAware Approximate
Mon 12:35:00 PM 25.0315 -88.4038 161° South  Level FlightAware Approximate
Mon 12:36:00 PM 24.9352 -88.3668 161° South  Level FlightAware Approximate
Mon 12:37:00 PM 24.8390 -88.3298 161° South  Level FlightAware Approximate
Mon 12:38:00 PM 24.7427 -88.2929 161° South  Level FlightAware Approximate
Mon 12:39:00 PM 24.6465 -88.2560 161° South  Level FlightAware Approximate
Mon 12:40:00 PM 24.5502 -88.2192 161° South  Level FlightAware Approximate
Mon 12:41:00 PM 24.4541 -88.1818 160° South  Level FlightAware Approximate
Mon 12:42:00 PM 24.3582 -88.1439 160° South  Level FlightAware Approximate
Mon 12:43:00 PM 24.2623 -88.1061 160° South  Level FlightAware Approximate
Mon 12:44:00 PM 24.1664 -88.0683 160° South  Level FlightAware Approximate
Mon 12:45:00 PM 24.0704 -88.0305 160° South  Level FlightAware Approximate
Mon 12:46:00 PM 23.9745 -87.9929 160° South  Level FlightAware Approximate
Mon 12:47:00 PM 23.8786 -87.9552 160° South  Level FlightAware Approximate
Mon 12:48:00 PM 23.7826 -87.9177 160° South  Level FlightAware Approximate
Mon 12:49:00 PM 23.6866 -87.8801 160° South  Level FlightAware Approximate
Mon 12:50:00 PM 23.5907 -87.8427 160° South  Level FlightAware Approximate
Mon 12:51:00 PM 23.4951 -87.8041 159° South  Level FlightAware Approximate
Mon 12:52:00 PM 23.3997 -87.7651 159° South  Level FlightAware Approximate
Mon 12:53:00 PM 23.3042 -87.7262 159° South  Level FlightAware Approximate
Mon 12:54:00 PM 23.2087 -87.6874 159° South  Level FlightAware Approximate
Mon 12:55:00 PM 23.1132 -87.6488 162° South  Level FlightAware Approximate
Mon 12:56:00 PM 23.0162 -87.6148 162° South  Level FlightAware Approximate
Mon 12:57:00 PM 22.9192 -87.5808 162° South  Level FlightAware Approximate
Mon 12:58:00 PM 22.8222 -87.5469 162° South  Level FlightAware Approximate
Mon 12:59:00 PM 22.7278 -87.5056 155° Southeast  Level FlightAware Approximate
Mon 01:00:00 PM 22.6337 -87.4635 160° South  Level FlightAware Approximate
Mon 01:01:00 PM 22.5376 -87.4266 161° South  Level FlightAware Approximate
Mon 01:02:00 PM 22.4413 -87.3905 161° South  Level FlightAware Approximate
Mon 01:03:00 PM 22.3450 -87.3543 161° South  Level FlightAware Approximate
Mon 01:04:00 PM 22.2487 -87.3182 161° South  Level FlightAware Approximate
Mon 01:05:00 PM 22.1522 -87.2828 162° South  Level FlightAware Approximate
Mon 01:06:00 PM 22.0556 -87.2479 162° South  Level FlightAware Approximate
Mon 01:07:00 PM 21.9589 -87.2131 162° South  Level FlightAware Approximate
Mon 01:08:00 PM 21.8622 -87.1783 162° South  Level FlightAware Approximate
Mon 01:09:00 PM 21.7652 -87.1446 164° South  Level FlightAware Approximate
Mon 01:10:00 PM 21.6670 -87.1151 164° South  Level FlightAware Approximate
Mon 01:11:00 PM 21.5746 -87.0741 161° South  Level FlightAware Approximate
Mon 01:12:00 PM 21.4780 -87.0389 161° South  Level FlightAware Approximate
Mon 01:13:00 PM 21.3812 -87.0048 163° South  Level FlightAware Approximate
Mon 01:14:00 PM 21.2838 -86.9724 163° South  Level FlightAware Approximate
Mon 01:15:00 PM 21.1880 -86.9357 155° Southeast  Level FlightAware Approximate
Mon 01:16:00 PM 21.0927 -86.8971 160° South  Level FlightAware Approximate
Mon 01:17:00 PM 21.0365 -86.8771 160° South  Level Estimated
Mon 01:18:00 PM 21.0365 -86.8771 160° South  Level Estimated
Mon 01:19:00 PM 21.0365 -86.8771 160° South  Level Estimated
Mon 01:20:00 PM 21.0365 -86.8771 160° South  Level Estimated
Mon 01:21:00 PM 21.0365 -86.8771 160° South  Level Estimated
Mon 01:22:00 PM 21.0365 -86.8771 160° South  Level Estimated
Mon 01:23:00 PM 21.0365 -86.8771 160° South  Level Estimated
Mon 01:24:00 PM 21.0365 -86.8771 160° South  Level Estimated
Mon 01:25:00 PM 21.0365 -86.8771 160° South  Level Estimated
Mon 01:26:00 PM 21.0365 -86.8771 160° South  Level Estimated
Mon 01:27:00 PM 21.0365 -86.8771 160° South  Level Estimated
Mon 01:28:00 PM 21.0365 -86.8771 160° South  Level Estimated
Mon 01:29:00 PM 21.0365 -86.8771 160° South  Level Estimated
Mon 01:30:00 PM 21.0365 -86.8771 160° South  Level Estimated

Login

Don't have an account? Register now (free) for customized features, flight alerts, and more!